CheckWX is a tool to help pilots better visualize weather data.  It is not intended as a substitute for an official pre-flight weather briefing.

14:45:06 UTC

LFPV TAF
Villacoublay-Vélizy (BA 107) Air Base Airport
Villacoublay/Vélizy, France
TAF LFPV 201400Z 2015/2115 32008KT 9999 BKN030 TEMPO 2107/2110 BKN007

May-20@
15:00 UTC

May-20 @ 15:00 UTC

May-21@
15:00 UTC

May-21 @ 15:00 UTC

TAF LFPV 201400Z 2015/2115 32008KT 9999 BKN030
Wind
  • 320° at 8 KTS
Cloud Levels
  • Broken at 3,000' AGL

May-21@
07:00 UTC

May-21 @ 07:00 UTC

May-21@
10:00 UTC

May-21 @ 10:00 UTC

TEMPO 2107/2110 BKN007

Temporary

Temporary Changes expected for less than half the time period

Cloud Levels
  • Broken at 700' AGL